Terminal Aerodrome Forecast
Issued by NWS

Home | Current Version | Previous Version | Graphics & Text | Print | Product List | Glossary On
Versions: 1 2 3 4 5 6 7 8 9 10 11 12 13 14 15 16 17 18 19 20 21 22 23 24 25 26
000
FTUS45 KGGW 241700
TAFOLF
TAF
KOLF 241721Z 2418/2518 00000KT P6SM VCSH OVC060
     FM251200 03012KT P6SM VCSH BKN016=

USA.gov is the U.S. government's official web portal to all federal, state and local government web resources and services.